createdAt,value
2023-01-31T00:00:38.709Z,5.63
2023-01-31T00:03:06.833Z,6.57
2023-01-31T00:05:37.204Z,8.43
2023-01-31T00:08:05.623Z,8.77
2023-01-31T00:10:34.258Z,7.80
2023-01-31T00:13:02.392Z,7.37
2023-01-31T00:15:31.089Z,7.93
2023-01-31T00:17:59.205Z,8.90
2023-01-31T00:20:27.779Z,5.83
2023-01-31T00:22:57.716Z,6.90
2023-01-31T00:25:26.311Z,8.97
2023-01-31T00:27:54.909Z,5.47
2023-01-31T00:30:23.022Z,8.77
2023-01-31T00:32:51.616Z,6.50
2023-01-31T00:35:20.021Z,8.60
2023-01-31T00:37:48.794Z,9.70
2023-01-31T00:40:19.211Z,6.77
2023-01-31T00:42:47.504Z,7.13
2023-01-31T00:45:16.803Z,9.67
2023-01-31T00:47:44.920Z,9.27
2023-01-31T00:50:16.543Z,5.70
2023-01-31T00:52:44.846Z,8.73
2023-01-31T00:55:13.433Z,12.10
2023-01-31T00:57:42.920Z,6.67
2023-01-31T01:00:12.697Z,8.60
2023-01-31T01:02:40.801Z,10.20
2023-01-31T01:05:10.093Z,7.57
2023-01-31T01:07:38.192Z,8.40
2023-01-31T01:10:08.060Z,7.93
2023-01-31T01:12:36.749Z,10.27
2023-01-31T01:15:07.397Z,8.63
2023-01-31T01:17:36.157Z,7.37
2023-01-31T01:20:04.991Z,7.40
2023-01-31T01:22:35.368Z,6.97
2023-01-31T01:25:03.939Z,7.43
2023-01-31T01:27:32.679Z,7.53
2023-01-31T01:30:02.086Z,9.07
2023-01-31T01:32:32.023Z,7.73
2023-01-31T01:35:00.647Z,7.73
2023-01-31T01:37:30.399Z,8.17
2023-01-31T01:39:59.021Z,6.43
2023-01-31T01:42:28.591Z,10.07
2023-01-31T01:44:59.656Z,9.97
2023-01-31T01:47:38.159Z,7.70
2023-01-31T01:50:12.750Z,7.90
2023-01-31T01:52:44.822Z,8.63
2023-01-31T01:55:19.779Z,8.97
2023-01-31T01:57:52.127Z,8.23
2023-01-31T02:00:23.285Z,6.33
2023-01-31T02:02:56.766Z,7.53
2023-01-31T02:05:30.678Z,6.40
2023-01-31T02:07:59.829Z,8.93
2023-01-31T02:10:34.148Z,6.37
2023-01-31T02:13:03.435Z,8.17
2023-01-31T02:15:32.985Z,8.27
2023-01-31T02:18:02.492Z,7.17
2023-01-31T02:21:05.241Z,9.20
2023-01-31T02:24:04.609Z,8.17
2023-01-31T02:27:10.512Z,7.33
2023-01-31T02:30:16.525Z,10.70
2023-01-31T02:33:01.481Z,7.13
2023-01-31T02:35:43.411Z,9.87
2023-01-31T02:38:23.373Z,6.90
2023-01-31T02:40:59.828Z,8.70
2023-01-31T02:43:58.801Z,7.37
2023-01-31T02:46:36.712Z,7.07
2023-01-31T02:49:16.511Z,8.00
2023-01-31T02:52:09.051Z,8.27
2023-01-31T02:54:52.588Z,8.40
2023-01-31T02:57:21.097Z,12.70
2023-01-31T02:59:49.759Z,7.70
2023-01-31T03:02:18.467Z,9.53
2023-01-31T03:04:49.163Z,8.70
2023-01-31T03:07:22.706Z,9.10
2023-01-31T03:10:03.609Z,7.40
2023-01-31T03:12:42.703Z,8.90
2023-01-31T03:15:52.896Z,8.60
2023-01-31T03:18:24.251Z,6.13
2023-01-31T03:21:00.347Z,8.47
2023-01-31T03:23:31.813Z,6.43
2023-01-31T03:26:02.412Z,7.87
2023-01-31T03:28:36.249Z,7.77
2023-01-31T03:31:10.491Z,6.20
2023-01-31T03:33:41.913Z,8.47
2023-01-31T03:36:22.773Z,7.40
2023-01-31T03:38:57.889Z,10.30
2023-01-31T03:41:32.587Z,9.63
2023-01-31T03:44:07.075Z,7.23
2023-01-31T03:46:41.456Z,9.73
2023-01-31T03:49:13.306Z,8.83
2023-01-31T03:51:47.954Z,9.63
2023-01-31T03:54:25.528Z,7.57
2023-01-31T03:56:58.402Z,7.17
2023-01-31T03:59:31.466Z,10.27
2023-01-31T04:02:02.210Z,8.43
2023-01-31T04:04:37.102Z,8.57
2023-01-31T04:07:07.488Z,8.07
2023-01-31T04:09:38.067Z,8.17
2023-01-31T04:12:06.953Z,6.13
2023-01-31T04:14:35.660Z,10.37
2023-01-31T04:17:04.205Z,8.33
2023-01-31T04:19:32.410Z,8.87
2023-01-31T04:22:00.513Z,9.13
2023-01-31T04:24:30.535Z,11.20
2023-01-31T04:26:58.579Z,7.43
2023-01-31T04:29:27.210Z,8.27
2023-01-31T04:31:55.366Z,7.53
2023-01-31T04:34:23.956Z,9.20
2023-01-31T04:36:52.455Z,9.30
2023-01-31T04:39:20.562Z,7.80
2023-01-31T04:41:50.513Z,10.23
2023-01-31T04:44:18.595Z,8.47
2023-01-31T04:46:47.684Z,9.20
2023-01-31T04:49:16.435Z,8.50
2023-01-31T04:51:44.558Z,12.60
2023-01-31T04:54:13.230Z,11.10
2023-01-31T04:56:41.322Z,9.30
2023-01-31T04:59:11.436Z,9.43
2023-01-31T05:01:39.536Z,10.37
2023-01-31T05:04:08.237Z,8.13
2023-01-31T05:06:36.852Z,9.03
2023-01-31T05:09:05.488Z,9.10
2023-01-31T05:11:34.051Z,9.13
2023-01-31T05:14:02.588Z,11.33
2023-01-31T05:16:32.569Z,8.80
2023-01-31T05:19:01.217Z,8.23
2023-01-31T05:21:29.403Z,9.70
2023-01-31T05:23:58.033Z,7.93
2023-01-31T05:26:26.591Z,8.57
2023-01-31T05:28:54.653Z,8.43
2023-01-31T05:31:23.509Z,10.70
2023-01-31T05:33:54.017Z,7.00
2023-01-31T05:36:22.097Z,10.47
2023-01-31T05:38:51.115Z,7.60
2023-01-31T05:41:19.166Z,8.80
2023-01-31T05:43:47.250Z,11.67
2023-01-31T05:46:15.503Z,9.97
2023-01-31T05:48:44.030Z,9.63
2023-01-31T05:51:13.930Z,10.53
2023-01-31T05:53:41.991Z,7.53
2023-01-31T05:56:10.548Z,7.23
2023-01-31T05:58:39.123Z,9.60
2023-01-31T06:01:07.238Z,10.10
2023-01-31T06:03:35.800Z,9.47
2023-01-31T06:06:05.686Z,11.83
2023-01-31T06:08:35.655Z,10.17
2023-01-31T06:11:04.860Z,9.17
2023-01-31T06:13:33.162Z,6.27
2023-01-31T06:16:03.051Z,13.13
2023-01-31T06:18:31.993Z,11.07
2023-01-31T06:21:00.567Z,10.23
2023-01-31T06:23:29.216Z,11.20
2023-01-31T06:25:59.532Z,6.57
2023-01-31T06:28:28.203Z,10.03
2023-01-31T06:30:56.926Z,10.77
2023-01-31T06:33:42.172Z,7.50
2023-01-31T06:36:13.636Z,8.70
2023-01-31T06:38:42.295Z,7.00
2023-01-31T06:41:12.949Z,6.50
2023-01-31T06:43:42.266Z,7.97
2023-01-31T06:46:10.430Z,6.03
2023-01-31T06:48:39.068Z,7.30
2023-01-31T06:51:07.432Z,9.93
2023-01-31T06:53:39.012Z,7.77
2023-01-31T06:56:08.364Z,8.03
2023-01-31T06:58:37.826Z,7.23
2023-01-31T07:01:06.808Z,7.47
2023-01-31T07:03:35.036Z,9.27
2023-01-31T07:06:03.270Z,8.13
2023-01-31T07:08:35.307Z,9.57
2023-01-31T07:11:04.957Z,9.00
2023-01-31T07:13:33.788Z,7.83
2023-01-31T07:16:03.274Z,8.10
2023-01-31T07:18:31.501Z,9.40
2023-01-31T07:20:59.570Z,9.10
2023-01-31T07:23:28.126Z,8.17
2023-01-31T07:25:56.238Z,8.70
2023-01-31T07:28:24.319Z,7.90
2023-01-31T07:30:52.459Z,9.40
2023-01-31T07:33:22.412Z,12.53
2023-01-31T07:35:51.263Z,9.67
2023-01-31T07:38:19.936Z,12.30
2023-01-31T07:40:47.991Z,9.97
2023-01-31T07:43:16.506Z,9.47
2023-01-31T07:45:45.069Z,11.37
2023-01-31T07:48:13.156Z,9.23
2023-01-31T07:50:43.083Z,9.27
2023-01-31T07:53:11.625Z,9.47
2023-01-31T07:55:40.214Z,10.13
2023-01-31T07:58:08.291Z,7.03
2023-01-31T08:00:54.347Z,12.37
2023-01-31T08:03:33.869Z,9.63
2023-01-31T08:06:08.185Z,8.63
2023-01-31T08:08:36.741Z,12.17
2023-01-31T08:11:06.160Z,13.37
2023-01-31T08:13:35.757Z,9.13
2023-01-31T08:16:04.614Z,10.80
2023-01-31T08:18:33.206Z,9.23
2023-01-31T08:21:01.656Z,11.13
2023-01-31T08:23:32.093Z,9.10
2023-01-31T08:26:04.831Z,9.93
2023-01-31T08:28:34.070Z,10.47
2023-01-31T08:31:08.979Z,9.23
2023-01-31T08:33:39.199Z,10.77
2023-01-31T08:36:12.207Z,10.40
2023-01-31T08:38:43.072Z,10.30
2023-01-31T08:41:11.279Z,10.37
2023-01-31T08:43:54.074Z,9.87
2023-01-31T08:46:23.887Z,10.03
2023-01-31T08:48:52.847Z,8.50
2023-01-31T08:51:21.701Z,7.87
2023-01-31T08:53:51.339Z,8.37
2023-01-31T08:56:21.762Z,9.27
2023-01-31T08:58:50.173Z,10.27
2023-01-31T09:01:20.921Z,9.50
2023-01-31T09:03:50.615Z,8.83
2023-01-31T09:06:22.839Z,7.73
2023-01-31T09:08:52.348Z,8.50
2023-01-31T09:11:22.577Z,7.30
2023-01-31T09:13:51.959Z,7.43
2023-01-31T09:16:21.537Z,10.57
2023-01-31T09:18:49.617Z,7.53
2023-01-31T09:21:19.963Z,8.07
2023-01-31T09:23:48.935Z,7.97
2023-01-31T09:26:18.957Z,8.43
2023-01-31T09:28:47.029Z,7.17
2023-01-31T09:31:18.247Z,8.03
2023-01-31T09:33:46.369Z,11.00
2023-01-31T09:36:16.800Z,9.83
2023-01-31T09:38:45.425Z,8.83
2023-01-31T09:41:21.580Z,9.97
2023-01-31T09:43:55.132Z,7.83
2023-01-31T09:46:28.481Z,8.60
2023-01-31T09:48:58.959Z,9.53
2023-01-31T09:51:28.498Z,6.53
2023-01-31T09:53:57.932Z,9.53
2023-01-31T09:56:35.870Z,9.67
2023-01-31T09:59:16.633Z,10.40
2023-01-31T10:01:53.685Z,9.00
2023-01-31T10:04:38.298Z,8.03
2023-01-31T10:07:13.694Z,11.63
2023-01-31T10:09:46.203Z,12.57
2023-01-31T10:12:20.504Z,10.40
2023-01-31T10:14:52.314Z,8.87
2023-01-31T10:17:25.595Z,10.70
2023-01-31T10:19:58.883Z,8.87
2023-01-31T10:22:33.356Z,11.80
2023-01-31T10:25:08.017Z,8.30
2023-01-31T10:27:46.697Z,9.13
2023-01-31T10:30:19.653Z,10.43
2023-01-31T10:32:52.877Z,11.00
2023-01-31T10:35:25.870Z,10.60
2023-01-31T10:37:59.379Z,11.67
2023-01-31T10:40:35.134Z,9.87
2023-01-31T10:43:15.744Z,11.17
2023-01-31T10:45:43.938Z,8.57
2023-01-31T10:48:17.907Z,7.23
2023-01-31T10:50:59.966Z,6.03
2023-01-31T10:53:48.856Z,10.97
2023-01-31T10:56:25.223Z,7.53
2023-01-31T10:58:55.002Z,9.37
2023-01-31T11:01:23.676Z,9.43
2023-01-31T11:03:54.563Z,10.63
2023-01-31T11:06:23.583Z,9.00
2023-01-31T11:08:55.886Z,7.67
2023-01-31T11:11:25.953Z,8.43
2023-01-31T11:14:01.131Z,9.20
2023-01-31T11:16:32.457Z,14.13
2023-01-31T11:19:03.261Z,8.77
2023-01-31T11:21:33.938Z,9.13
2023-01-31T11:24:06.332Z,10.50
2023-01-31T11:26:37.641Z,11.13
2023-01-31T11:29:19.774Z,10.83
2023-01-31T11:31:49.731Z,9.20
2023-01-31T11:34:24.006Z,9.80
2023-01-31T11:36:52.872Z,10.03
2023-01-31T11:39:32.072Z,10.90
2023-01-31T11:42:08.828Z,8.53
2023-01-31T11:44:38.756Z,9.87
2023-01-31T11:47:13.119Z,8.93
2023-01-31T11:49:44.114Z,10.27
2023-01-31T11:52:17.948Z,9.00
2023-01-31T11:54:50.935Z,9.67
2023-01-31T11:57:24.585Z,8.93
2023-01-31T11:59:58.675Z,10.83
2023-01-31T12:02:33.147Z,11.10
2023-01-31T12:05:02.850Z,7.90
2023-01-31T12:07:43.354Z,8.23
2023-01-31T12:10:28.900Z,9.93
2023-01-31T12:13:17.641Z,8.70
2023-01-31T12:15:55.960Z,8.73
2023-01-31T12:18:41.271Z,8.37
2023-01-31T12:21:16.254Z,8.57
2023-01-31T12:24:01.602Z,11.13
2023-01-31T12:26:39.712Z,8.20
2023-01-31T12:29:26.137Z,11.00
2023-01-31T12:32:22.356Z,10.20
2023-01-31T12:35:11.995Z,8.50
2023-01-31T12:37:52.696Z,7.83
2023-01-31T12:40:39.787Z,7.77
2023-01-31T12:43:21.152Z,8.10
2023-01-31T12:46:07.640Z,8.10
2023-01-31T12:48:47.953Z,7.27
2023-01-31T12:51:31.134Z,8.87
2023-01-31T12:54:13.907Z,11.57
2023-01-31T12:56:51.411Z,8.97
2023-01-31T12:59:34.529Z,9.47
2023-01-31T13:02:21.456Z,10.87
2023-01-31T13:04:57.607Z,9.80
2023-01-31T13:07:31.949Z,6.13
2023-01-31T13:10:03.953Z,10.73
2023-01-31T13:12:35.040Z,11.13
2023-01-31T13:15:08.062Z,6.33
2023-01-31T13:17:41.010Z,9.40
2023-01-31T13:20:24.055Z,7.87
2023-01-31T13:22:57.526Z,6.67
2023-01-31T13:25:36.684Z,6.50
2023-01-31T13:28:10.907Z,6.73
2023-01-31T13:30:43.286Z,6.20
2023-01-31T13:33:22.093Z,7.47
2023-01-31T13:36:03.389Z,7.07
2023-01-31T13:38:38.993Z,12.87
2023-01-31T13:41:09.477Z,6.47
2023-01-31T13:43:37.528Z,8.07
2023-01-31T13:46:10.029Z,7.00
2023-01-31T13:48:42.119Z,8.30
2023-01-31T13:51:19.593Z,9.70
2023-01-31T13:53:52.560Z,8.03
2023-01-31T13:56:25.999Z,7.47
2023-01-31T13:58:56.554Z,6.60
2023-01-31T14:01:26.261Z,9.10
2023-01-31T14:04:29.685Z,9.87
2023-01-31T14:07:21.042Z,5.43
2023-01-31T14:10:22.814Z,8.57
2023-01-31T14:13:39.403Z,6.20
2023-01-31T14:16:39.776Z,9.13
2023-01-31T14:19:53.157Z,8.80
2023-01-31T14:22:23.967Z,6.13
2023-01-31T14:25:02.008Z,10.57
2023-01-31T14:28:03.920Z,7.33
2023-01-31T14:30:37.549Z,8.40
2023-01-31T14:33:32.208Z,7.20
2023-01-31T14:36:44.755Z,5.63
2023-01-31T14:39:42.575Z,8.67
2023-01-31T14:42:28.718Z,8.57
2023-01-31T14:45:25.363Z,9.30
2023-01-31T14:48:12.383Z,8.47
2023-01-31T14:50:56.086Z,7.30
2023-01-31T14:53:44.252Z,10.10
2023-01-31T14:56:27.365Z,8.50
2023-01-31T14:58:55.811Z,7.73
2023-01-31T15:01:35.196Z,6.03
2023-01-31T15:04:04.915Z,7.67
2023-01-31T15:06:41.031Z,8.27
2023-01-31T15:09:34.984Z,4.80
2023-01-31T15:12:03.084Z,5.87
2023-01-31T15:14:38.092Z,6.33
2023-01-31T15:17:33.258Z,6.30
2023-01-31T15:20:15.547Z,6.57
2023-01-31T15:22:45.323Z,6.87
2023-01-31T15:25:24.789Z,6.87
2023-01-31T15:27:54.582Z,6.03
2023-01-31T15:30:24.523Z,7.37
2023-01-31T15:33:00.356Z,6.37
2023-01-31T15:35:32.162Z,6.40
2023-01-31T15:38:05.168Z,6.07
2023-01-31T15:40:33.565Z,5.53
2023-01-31T15:43:26.467Z,6.27
2023-01-31T15:45:55.106Z,8.30
2023-01-31T15:48:24.617Z,5.03
2023-01-31T15:50:55.408Z,5.57
2023-01-31T15:53:25.148Z,5.60
2023-01-31T15:55:56.948Z,7.93
2023-01-31T15:58:27.197Z,6.80
2023-01-31T16:00:57.804Z,5.33
2023-01-31T16:03:30.260Z,7.33
2023-01-31T16:06:00.408Z,6.30
2023-01-31T16:08:31.307Z,5.67
2023-01-31T16:11:00.635Z,5.47
2023-01-31T16:13:30.095Z,5.43
2023-01-31T16:15:59.421Z,5.30
2023-01-31T16:18:29.651Z,7.40
2023-01-31T16:20:58.849Z,4.87
2023-01-31T16:23:30.726Z,5.13
2023-01-31T16:26:08.503Z,4.50
2023-01-31T16:28:43.056Z,6.90
2023-01-31T16:31:14.863Z,4.47
2023-01-31T16:33:50.344Z,6.87
2023-01-31T16:36:22.906Z,4.87
2023-01-31T16:38:59.814Z,6.50
2023-01-31T16:41:47.177Z,5.97
2023-01-31T16:44:19.444Z,5.03
2023-01-31T16:46:49.763Z,6.53
2023-01-31T16:49:27.515Z,7.90
2023-01-31T16:51:58.331Z,4.93
2023-01-31T16:54:31.187Z,5.17
2023-01-31T16:57:22.844Z,5.57
2023-01-31T16:59:52.887Z,8.20
2023-01-31T17:02:26.215Z,6.10
2023-01-31T17:04:58.901Z,5.40
2023-01-31T17:07:30.603Z,6.50
2023-01-31T17:10:00.851Z,4.70
2023-01-31T17:12:31.349Z,5.50
2023-01-31T17:15:03.100Z,6.93
2023-01-31T17:17:34.621Z,5.13
2023-01-31T17:20:04.762Z,6.20
2023-01-31T17:22:33.403Z,5.07
2023-01-31T17:25:01.479Z,6.30
2023-01-31T17:27:29.551Z,6.03
2023-01-31T17:29:58.178Z,4.97
2023-01-31T17:32:26.282Z,5.77
2023-01-31T17:34:54.917Z,8.53
2023-01-31T17:37:31.650Z,7.33
2023-01-31T17:40:01.420Z,6.20
2023-01-31T17:42:29.991Z,5.10
2023-01-31T17:44:58.109Z,5.20
2023-01-31T17:47:27.142Z,7.93
2023-01-31T17:49:56.166Z,6.27
2023-01-31T17:52:26.247Z,7.43
2023-01-31T17:54:55.825Z,5.77
2023-01-31T17:57:23.948Z,7.43
2023-01-31T17:59:52.325Z,6.30
2023-01-31T18:02:20.567Z,5.07
2023-01-31T18:04:48.690Z,4.83
2023-01-31T18:07:17.298Z,6.07
2023-01-31T18:09:46.756Z,6.77
2023-01-31T18:12:14.955Z,4.97
2023-01-31T18:14:43.134Z,4.30
2023-01-31T18:17:11.312Z,4.07
2023-01-31T18:19:40.055Z,4.20
2023-01-31T18:22:08.636Z,5.90
2023-01-31T18:24:37.266Z,4.20
2023-01-31T18:27:06.729Z,5.07
2023-01-31T18:29:34.815Z,4.37
2023-01-31T18:32:06.260Z,4.70
2023-01-31T18:34:34.863Z,4.83
2023-01-31T18:37:05.586Z,4.77
2023-01-31T18:39:34.429Z,4.40
2023-01-31T18:42:03.791Z,3.93
2023-01-31T18:44:33.206Z,4.60
2023-01-31T18:47:01.846Z,4.83
2023-01-31T18:49:30.723Z,4.23
2023-01-31T18:51:59.313Z,5.30
2023-01-31T18:54:27.964Z,4.07
2023-01-31T18:56:56.016Z,4.13
2023-01-31T18:59:24.604Z,3.97
2023-01-31T19:01:54.617Z,4.40
2023-01-31T19:04:23.385Z,5.00
2023-01-31T19:06:51.566Z,4.83
2023-01-31T19:09:20.320Z,4.53
2023-01-31T19:11:48.341Z,4.60
2023-01-31T19:14:17.066Z,4.77
2023-01-31T19:16:45.447Z,5.20
2023-01-31T19:19:14.878Z,4.53
2023-01-31T19:21:43.274Z,5.00
2023-01-31T19:24:14.597Z,5.20
2023-01-31T19:26:43.859Z,5.13
2023-01-31T19:29:16.099Z,5.43
2023-01-31T19:31:46.303Z,4.73
2023-01-31T19:34:15.814Z,6.07
2023-01-31T19:36:46.524Z,5.43
2023-01-31T19:39:15.212Z,5.57
2023-01-31T19:41:43.390Z,6.40
2023-01-31T19:44:11.628Z,8.80
2023-01-31T19:46:40.250Z,5.67
2023-01-31T19:49:08.349Z,5.30
2023-01-31T19:51:38.094Z,6.03
2023-01-31T19:54:06.792Z,4.97
2023-01-31T19:56:35.468Z,4.83
2023-01-31T19:59:03.745Z,4.50
2023-01-31T20:01:32.358Z,5.80
2023-01-31T20:04:00.613Z,4.80
2023-01-31T20:06:31.300Z,4.93
2023-01-31T20:09:04.279Z,6.27
2023-01-31T20:11:34.075Z,5.40
2023-01-31T20:14:02.169Z,5.20
2023-01-31T20:16:31.037Z,5.67
2023-01-31T20:19:01.981Z,5.70
2023-01-31T20:21:30.027Z,5.17
2023-01-31T20:23:58.126Z,4.40
2023-01-31T20:26:29.466Z,4.37
2023-01-31T20:28:57.648Z,4.70
2023-01-31T20:31:26.029Z,4.90
2023-01-31T20:33:55.624Z,4.20
2023-01-31T20:36:24.602Z,4.97
2023-01-31T20:38:53.359Z,4.83
2023-01-31T20:41:22.441Z,3.80
2023-01-31T20:43:51.847Z,5.77
2023-01-31T20:46:20.786Z,4.70
2023-01-31T20:48:48.940Z,5.30
2023-01-31T20:51:17.552Z,6.07
2023-01-31T20:53:45.714Z,4.70
2023-01-31T20:56:14.404Z,5.73
2023-01-31T20:58:44.925Z,5.57
2023-01-31T21:01:14.490Z,4.33
2023-01-31T21:03:43.240Z,4.77
2023-01-31T21:06:11.956Z,4.00
2023-01-31T21:08:41.307Z,4.50
2023-01-31T21:11:15.520Z,4.77
2023-01-31T21:13:44.486Z,6.00
2023-01-31T21:16:15.679Z,4.07
2023-01-31T21:18:44.902Z,4.83
2023-01-31T21:21:15.466Z,4.47
2023-01-31T21:23:44.055Z,5.77
2023-01-31T21:26:13.055Z,3.70
2023-01-31T21:28:41.770Z,4.67
2023-01-31T21:31:12.747Z,3.70
2023-01-31T21:33:42.830Z,4.77
2023-01-31T21:36:12.972Z,4.37
2023-01-31T21:38:42.431Z,4.73
2023-01-31T21:41:29.408Z,4.40
2023-01-31T21:43:58.509Z,3.97
2023-01-31T21:46:28.119Z,4.03
2023-01-31T21:48:57.643Z,4.77
2023-01-31T21:51:26.323Z,4.03
2023-01-31T21:53:55.153Z,4.63
2023-01-31T21:56:26.273Z,6.40
2023-01-31T21:58:55.372Z,4.50
2023-01-31T22:01:26.627Z,4.50
2023-01-31T22:03:55.629Z,4.47
2023-01-31T22:06:29.000Z,3.93
2023-01-31T22:09:00.657Z,3.70
2023-01-31T22:11:33.445Z,3.60
2023-01-31T22:14:03.586Z,4.00
2023-01-31T22:16:31.945Z,3.80
2023-01-31T22:19:01.275Z,3.83
2023-01-31T22:21:32.428Z,3.63
2023-01-31T22:24:02.460Z,3.43
2023-01-31T22:26:32.571Z,4.00
2023-01-31T22:29:02.782Z,4.00
2023-01-31T22:31:32.021Z,3.70
2023-01-31T22:34:01.599Z,4.50
2023-01-31T22:36:31.149Z,4.40
2023-01-31T22:38:59.326Z,3.67
2023-01-31T22:41:27.950Z,3.73
2023-01-31T22:43:56.448Z,3.50
2023-01-31T22:46:26.787Z,3.33
2023-01-31T22:48:55.740Z,3.70
2023-01-31T22:51:25.776Z,3.27
2023-01-31T22:53:55.697Z,3.20
2023-01-31T22:56:25.478Z,3.00
2023-01-31T22:58:57.050Z,2.67
2023-01-31T23:01:27.803Z,3.00
2023-01-31T23:03:59.249Z,2.83
2023-01-31T23:06:28.301Z,2.50
2023-01-31T23:08:58.584Z,2.93
2023-01-31T23:11:27.852Z,2.60
2023-01-31T23:13:57.455Z,3.07
2023-01-31T23:16:47.033Z,2.63
2023-01-31T23:19:15.488Z,2.97
2023-01-31T23:21:44.454Z,2.67
2023-01-31T23:24:15.067Z,3.37
2023-01-31T23:26:43.551Z,3.03
2023-01-31T23:29:12.045Z,3.50
2023-01-31T23:31:40.305Z,3.67
2023-01-31T23:34:08.496Z,3.17
2023-01-31T23:36:37.181Z,4.53
2023-01-31T23:39:05.905Z,3.53
2023-01-31T23:41:35.825Z,3.43
2023-01-31T23:44:03.944Z,3.70
2023-01-31T23:46:32.337Z,3.60
2023-01-31T23:49:00.521Z,4.20
2023-01-31T23:51:31.142Z,3.33
2023-01-31T23:53:59.206Z,3.43
2023-01-31T23:56:28.037Z,3.57
2023-01-31T23:58:57.534Z,4.13
